La Puente, New Mexico
Current Conditions -  °F | °C
As of 1:55 PM on Tuesday 25 Nov 2014 (Local Time) from KPSO Reporting Station
Clear Clear  
Wind Chill: 28°   Ceiling: Unl
Heat Index: 34°   Visibility: 10mi
Dew Point:   Wind: 7mph
Humidity: 30%   Direction: 190°S
Pressure: 30.26"   Gusts: NA
Location:  36.679°N, 106.555°W
Report Text: KPSO 252055Z AUTO 19006KT 10SM CLR 01/M15 A3026 RMK AO2 T00121147
Loading
Personal Weather Stations






























Interactive Weather Map New forecast layout! Learn more

10-Day Weather Forecast

Advertisements
Track Severe Weather on mobile